Carson Sink, Nevada Weather observations

Data are for observation ending at time listed.
 Day   Time    Ave.   Ave.  Ave.  Vector   Max.   Stn.    Total    Solar   Ave.  
  of    of     Air    Rel.  Wind   Wind    Wind   Baro.  Precip.   Rad.    Soil  
Year   Day     Temp.  Hum.  Speed  Dir.    Gust   Pres.                    Temp. 
2015   (PST)    F      %     mph   deg.    mph     mb.     in.     W/m2     F   
------------------------------------------------------------------------------
 146   19:30   71.9    46    3.4   122      4.5   878.8    0.00       0     76.8
 146   19:40   71.7    44    1.6   119      2.9   878.9    0.00       0     76.6
 146   19:50   71.6    47    2.0   266      3.7   879.1    0.00       0     76.3
 146   20:00   71.1    51    2.0   208      3.9   879.1    0.00       0     76.1
 146   20:10   71.0    48    5.1   159      6.4   879.1    0.00       0     75.8
 146   20:20   70.9    47    4.5   166      6.1   879.2    0.00       0     75.6
 146   20:30   70.6    47    4.0   154      5.1   879.3    0.00       0     75.4
 146   20:40   71.2    41    2.3   189      4.2   879.6    0.00       0     75.1
 146   20:50   70.4    50    6.1   272     14.8   880.2    0.00       0     74.9
 146   21:00   69.4    46   14.3   250     22.9   880.5    0.00       0     74.7
 146   21:10   67.5    45   14.1   219     20.2   880.5    0.00       0     74.5
 146   21:20   66.7    49    8.2   210     11.3   880.5    0.00       0     74.3
 146   21:30   66.1    54    4.5   204      6.8   880.5    0.00       0     74.1
 146   21:40   65.3    55    7.1   216     10.9   880.4    0.00       0     73.8
 146   21:50   65.2    56    5.7   244      8.2   880.5    0.00       0     73.6
 146   22:00   64.8    59    4.3   235      8.3   880.5    0.00       0     73.4
 146   22:10   64.5    61    3.6   124      6.3   880.3    0.00       0     73.2
 146   22:20   64.3    60    2.6   112      7.5   880.4    0.00       0     73.0
 146   22:30   63.7    63    6.4   121      8.3   880.5    0.00       0     72.8
 146   22:40   63.3    63    3.0   139      5.5   880.6    0.00       0     72.6
 146   22:50   62.7    64    0.7   148      1.8   880.5    0.00       0     72.4
 146   23:00   63.6    61    3.3    21      6.7   880.6    0.00       0     72.1
 146   23:10   62.7    68    5.9   358      7.7   880.6    0.00       0     71.9
 146   23:20   62.1    69    3.4   353      4.9   880.7    0.00       0     71.7
 146   23:30   61.8    71    2.6   267      3.9   880.7    0.00       0     71.5
 146   23:40   61.3    71    3.2   253      4.3   880.6    0.00       0     71.3
 146   23:50   61.2    71    3.4   249      4.7   880.6    0.00       0     71.1
 147    0:00   61.5    72    2.9    35      6.1   880.8    0.00       0     70.9
 147    0:10   61.6    70    0.2    39      1.2   880.8    0.00       0     70.7
 147    0:20   61.6    69    0.2    63      0.9   880.9    0.00       0     70.5
 147    0:30   61.8    66    3.0   332      4.4   881.0    0.00       0     70.3
 147    0:40   61.8    66    3.8   313      4.2   881.0    0.00       0     70.2
 147    0:50   61.4    66    2.9   325      3.6   881.0    0.00       0     70.0
 147    1:00   61.4    65    1.8   339      5.8   881.0    0.00       0     69.8
 147    1:10   61.5    68    1.9    93      4.2   881.1    0.00       0     69.7
 147    1:20   60.9    70    1.8   132      2.6   881.0    0.00       0     69.5
 147    1:30   60.8    68    1.9   190      3.1   881.1    0.00       0     69.4
 147    1:40   61.0    68    2.7   158      5.8   881.2    0.00       0     69.2
 147    1:50   59.9    71    3.7   132      5.4   881.2    0.00       0     69.1
 147    2:00   60.1    67    2.7   172      3.8   881.2    0.00       0     68.9
 147    2:10   60.4    68    2.8   188      4.1   881.4    0.00       0     68.8
 147    2:20   60.2    71    3.4   191      4.4   881.5    0.00       0     68.6
 147    2:30   59.7    72    4.9   224      5.4   881.5    0.00       0     68.5
 147    2:40   59.3    74    5.1   221      6.0   881.5    0.00       0     68.3
 147    2:50   59.0    75    4.9   230      5.8   881.5    0.00       0     68.2
 147    3:00   59.0    74    4.8   238      5.9   881.5    0.00       0     68.1
 147    3:10   58.8    73    5.1   248      6.5   881.5    0.00       0     67.9
 147    3:20   58.3    72    4.9   272      5.5   881.5    0.00       0     67.8
 147    3:30   57.7    72    4.4   270      5.3   881.5    0.00       0     67.6
 147    3:40   57.6    71    3.0   226      4.1   881.5    0.00       0     67.5
 147    3:50   57.8    70    2.7   219      4.2   881.6    0.00       0     67.3
 147    4:00   58.7    67    1.8   234      2.7   881.6    0.00       0     67.2
 147    4:10   59.4    65    2.8   204      5.0   881.6    0.00       0     67.1
 147    4:20   58.3    72    4.8   184      6.0   881.7    0.00       0     66.9
 147    4:30   57.5    74    4.7   182      6.3   881.8    0.00       2     66.8
 147    4:40   56.6    75    4.9   177      6.5   881.8    0.00       7     66.6
 147    4:50   56.6    75    4.8   172      6.7   882.0    0.00      23     66.4
 147    5:00   56.3    76    5.7   172      8.0   882.0    0.00      50     66.3
 147    5:10   56.6    76    6.2   178      9.0   882.1    0.00      81     66.1
 147    5:20   57.3    75    5.6   189      8.1   882.1    0.00     111     66.0
 147    5:30   57.8    74    6.6   196      8.1   882.1    0.00     141     65.8
 147    5:40   58.0    74    5.3   189      7.2   882.2    0.00     170     65.7
 147    5:50   58.3    74    5.9   186      8.0   882.3    0.00     201     65.5
 147    6:00   59.0    73    7.0   196      9.1   882.3    0.00     232     65.4
 147    6:10   59.6    72    7.1   195      9.1   882.3    0.00     264     65.3
 147    6:20   60.1    72    7.5   198      9.6   882.3    0.00     296     65.2
 147    6:30   60.2    71    9.1   203     10.7   882.3    0.00     328     65.2
 147    6:40   60.2    69    9.8   210     11.2   882.3    0.00     360     65.1
 147    6:50   60.7    68   10.0   211     11.2   882.4    0.00     392     65.1
 147    7:00   61.4    67    9.3   203     11.0   882.4    0.00     423     65.1
 147    7:10   62.4    65    8.1   197     10.6   882.5    0.00     455     65.1
 147    7:20   63.1    60    8.8   204     10.3   882.5    0.00     486     65.2
 147    7:30   63.7    58    8.4   203     11.2   882.5    0.00     517     65.3
 147    7:40   64.3    58    8.7   203     11.3   882.5    0.00     548     65.4
 147    7:50   64.7    56    8.9   206     10.6   882.6    0.00     578     65.5
 147    8:00   65.1    55    8.4   212     10.2   882.6    0.00     607     65.7
 147    8:10   66.0    52    7.3   198     10.2   882.6    0.00     636     65.8
 147    8:20   66.1    51    7.4   212      9.9   882.6    0.00     664     66.0
 147    8:30   67.2    48    5.9   195      8.8   882.7    0.00     690     66.2
 147    8:40   67.8    45    5.3   207      8.6   882.7    0.00     716     66.5
 147    8:50   67.6    44    4.7   208      9.2   882.7    0.00     741     66.7
 147    9:00   69.0    44    4.9   194      7.7   882.6    0.00     764     67.0
 147    9:10   69.3    41    4.8   184      7.6   882.5    0.00     788     67.3
 147    9:20   69.3    40    4.2   209      7.5   882.5    0.00     810     67.6
 147    9:30   69.9    39    3.9   213      7.8   882.5    0.00     831     68.0
 147    9:40   70.1    36    3.8   218      7.0   882.5    0.00     851     68.4
 147    9:50   70.6    36    2.7   211      8.6   882.4    0.00     870     68.8
 147   10:00   71.0    36    4.4   196      9.4   882.4    0.00     886     69.2
 147   10:10   70.7    36    3.9   216      9.9   882.4    0.00     900     69.6
 147   10:20   71.8    34    3.3   195      7.7   882.4    0.00     917     70.1
 147   10:30   71.7    35    3.3   147      7.0   882.3    0.00     928     70.6
 147   10:40   71.6    33    3.9   164      8.6   882.2    0.00     938     71.1
 147   10:50   72.3    30    4.8   200      9.5   882.2    0.00     947     71.5
 147   11:00   72.1    31    3.5   183      9.0   882.2    0.00     955     72.0
 147   11:10   73.2    30    3.7   187      9.1   882.1    0.00     962     72.5
 147   11:20   72.3    30    5.6   128      9.2   882.0    0.00     966     73.0
 147   11:30   72.8    31    4.3   168      8.7   882.0    0.00     968     73.5
 147   11:40   73.2    30    5.2   162      8.8   881.9    0.00     968     74.0
 147   11:50   73.2    28    6.7   154     13.5   881.8    0.00     967     74.5
 147   12:00   73.8    28    7.2   164     11.5   881.7    0.00     969     75.1
 147   12:10   73.3    28    6.3   128     12.2   881.6    0.00     967     75.5
 147   12:20   74.2    28    5.2   152      7.9   881.5    0.00     971     76.0
 147   12:30   74.4    28    6.5   120     12.1   881.3    0.00     991     76.5
 147   12:40   74.6    28    6.4   154     11.1   881.2    0.00     964     77.0
 147   12:50   75.9    27    3.5   177      8.7   881.2    0.00     949     77.4
 147   13:00   74.8    27    7.0   130     11.1   881.1    0.00     951     77.9
 147   13:10   75.4    28    6.0   146     11.8   880.9    0.00     952     78.3
 147   13:20   76.3    26    5.3   198     12.0   880.9    0.00     961     78.7
 147   13:30   76.2    26    6.2   241     13.9   880.8    0.00     923     79.1
 147   13:40   76.2    26    3.6   354      7.7   880.8    0.00     927     79.4
 147   13:50   76.9    26    5.5   287     10.7   880.7    0.00     963     79.8
 147   14:00   77.2    26    5.3   183     11.3   880.6    0.00     692     80.1
 147   14:10   76.2    25    4.4   275     12.1   880.5    0.00     512     80.4
 147   14:20   76.2    26    2.3   306      8.0   880.4    0.00     471     80.7
 147   14:30   77.3    25    5.2    19     12.5   880.3    0.00     730     81.0
 147   14:40   76.8    26    6.8    18     11.9   880.2    0.00     876     81.2
 147   14:50   77.0    25    5.7   347      8.8   880.2    0.00     813     81.4
 147   15:00   77.3    26    3.9    59      9.9   880.2    0.00     801     81.6
 147   15:10   77.3    26    4.4    72      9.0   880.1    0.00     802     81.8
 147   15:20   77.0    26    6.4    48     11.4   880.0    0.00     477     82.0
 147   15:30   77.5    24    3.4   195      9.9   879.9    0.00     440     82.3
 147   15:40   78.0    24    4.4   132      9.1   880.0    0.00     493     82.5
 147   15:50   78.4    24    6.1   359     18.6   880.0    0.00     502     82.7
 147   16:00   79.4    22    5.2   347      9.5   880.0    0.00     589     82.8
 147   16:10   79.2    18    9.6   322     16.1   880.1    0.00     540     83.0
 147   16:20   79.6    16   13.1   288     19.7   879.9    0.00     513     83.1
 147   16:30   79.5    16   12.1   280     19.4   879.9    0.00     474     83.2
 147   16:40   79.5    16   14.6   281     20.7   879.9    0.00     435     83.2
 147   16:50   79.1    16   12.2   292     19.7   879.9    0.00     397     83.2
 147   17:00   79.3    16   15.6   296     22.3   879.9    0.00     361     83.2
 147   17:10   78.9    15   11.1   305     19.8   879.9    0.00     329     83.2
 147   17:20   78.8    14   12.1   312     19.4   879.8    0.00     297     83.2
 147   17:30   78.8    14   13.9   312     19.7   879.8    0.00     267     83.1
 147   17:40   78.6    14   13.6   309     17.8   879.7    0.00     236     83.0
 147   17:50   78.3    16   13.8   321     19.5   879.8    0.00     205     82.9
 147   18:00   77.8    18   10.8   333     16.3   879.9    0.00     176     82.7
 147   18:10   77.6    19   12.7   327     18.6   880.0    0.00     148     82.5
 147   18:20   77.2    22   11.6   330     15.4   880.0    0.00     121     82.3
 147   18:30   76.8    22   11.4   323     14.9   880.0    0.00      89     82.1
 147   18:40   76.3    24   10.4   325     13.5   880.1    0.00      58     81.9
 147   18:50   74.9    29    8.5   333     11.0   880.0    0.00      34     81.7
 147   19:00   73.8    34    7.1   336      8.6   880.1    0.00      14     81.4
 147   19:10   72.7    37    5.4   332      6.7   880.2    0.00       7     81.2
 147   19:20   72.0    40    5.6   333      6.6   880.2    0.00       3     80.9

Return to Carson Sink graphs page.


Western Regional Climate Center,wrcc@dri.edu